Fairfax, IA (52228)

8:31 PM CST on February 07, 2016 (GMT -0600)
Rockhurst Dr SW - Stoney Point | | Change Station
CLOSE
Current Station
Personal Weather Station
Location: Cedar Rapids, IA
Elevation: 830 ft
Nearby Weather Stations

Elev 830 ft 41.97 °N, 91.76 °W | Updated 11 seconds ago

Partly Cloudy
Partly Cloudy
34.2 °F
Feels Like 26 °F
N
11.2
Wind Variable Wind from SW
Gusts 15.0 mph

Today
High -- | Low -- °F
--% Chance of Precip.
Yesterday
High -- | Low -- °F
Precip. -- in
Pressure 29.80 in
Visibility 10.0 miles
Clouds Few 2900 ft
Windchill 26 °F
Dew Point 29 °F
Humidity 80%
Rainfall 0.00 in
Snow Depth Not available.
7:13 AM 5:29 PM
Waning Crescent, 0% visible
METAR KCID 080152Z 26012KT 10SM FEW029 01/M01 A2977 RMK AO2 SLP089 T00061006 $
Pressure 29.80 in
Visibility 10.0 miles
Clouds Few 2900 ft
Windchill 26 °F
Dew Point 29 °F
Humidity 80%
Rainfall 0.00 in
Snow Depth Not available.
7:13 AM 5:29 PM
Waning Crescent, 0% visible
METAR KCID 080152Z 26012KT 10SM FEW029 01/M01 A2977 RMK AO2 SLP089 T00061006 $

10-Day Weather Forecast

Almanac

Astronomy

Feb. 07, 2016 Rise Set
Actual Time
Civil Twilight
Nautical Twilight
Astronomical Twilight
Moon
Length of Visible Light
Length of Day
Tomorrow will be .
, % of the Moon is Illuminated

Today's Extremes

State Highs State Lows

Community

WunderPhotos

Upload Photos

1,891,373 photos uploaded!

WunderBlog® & News

Nearby

Air Quality

  Air Quality AQ Index Pollutant
Not available.

Snow Depth

Station Depth Elevation

Earthquake Activity

City Distance Mag. Time & Date
Minimum magnitude displayed is 2.5.

Coastal Water Temperatures

Place Temperature

Stations

Nearby Weather Stations

Station Location Temp. Windchill Dew Point Humidity Wind Precip. Elev Updated Type
                   

Watches & Warnings

There are currently no watches in effect.